Dassault Systemes SA Return on Tangible Equity 2010-2023 | DASTY

Current and historical return on tangible equity values for Dassault Systemes SA (DASTY) over the last 10 years. Return on tangible equity can be defined as the amount of net income returned as a percentage of shareholders equity, after subtracting intangible assets, goodwill and preferred equity.
Dassault Systemes SA Return On Tangible Equity Historical Data
Date TTM Net Income Tangible Equity Return on Tangible Equity
2023-09-30 $1.05B $-0.31B -105.99%
2023-03-31 $1.06B $-0.59B -70.86%
2022-09-30 $1.00B $-1.21B -50.58%
2022-03-31 $1.00B $-1.85B -42.18%
2021-12-31 $0.92B $-2.32B -34.12%
2021-09-30 $0.88B $-2.50B -30.25%
2021-06-30 $0.78B $-2.82B -24.23%
2021-03-31 $0.65B $-3.08B -18.83%
2020-12-31 $0.56B $-3.23B -15.41%
2020-09-30 $0.53B $-3.66B -13.64%
2020-06-30 $0.57B $-3.75B -22.87%
2020-03-31 $0.63B $-3.89B -52.16%
2019-12-31 $0.69B $-4.09B 665.06%
2019-09-30 $0.72B $1.75B 47.27%
2019-06-30 $0.72B $1.40B 51.37%
2019-03-31 $0.73B $1.37B 50.26%
2018-12-31 $0.67B $1.61B 45.58%
2018-09-30 $0.67B $1.23B 49.56%
2018-06-30 $0.65B $1.61B 46.53%
2018-03-31 $0.62B $1.45B 48.83%
2017-12-31 $0.59B $1.14B 49.44%
2017-09-30 $0.51B $1.37B 43.34%
2017-06-30 $0.51B $1.13B 48.61%
2017-03-31 $0.49B $1.12B 47.68%
2016-12-31 $0.49B $1.06B 50.08%
2016-09-30 $0.47B $0.87B 49.99%
2016-06-30 $0.46B $1.03B 51.80%
2016-03-31 $0.46B $0.98B 60.09%
2015-12-31 $0.45B $0.89B 70.70%
2015-09-30 $0.43B $0.67B 86.42%
2015-06-30 $0.40B $0.52B 105.79%
2015-03-31 $0.38B $0.45B 98.77%
2014-12-31 $0.37B $0.34B 61.94%
2014-09-30 $0.40B $0.21B 45.92%
2014-06-30 $0.43B $0.54B 37.76%
2014-03-31 $0.45B $1.29B 32.86%
2013-12-31 $0.47B $1.45B 33.93%
2013-09-30 $0.46B $1.31B 34.42%
2013-06-30 $0.44B $1.43B 35.55%
2013-03-31 $0.44B $1.38B 36.55%
2012-12-31 $0.43B $1.19B 37.28%
2012-09-30 $0.42B $0.96B 35.83%
2012-06-30 $0.42B $1.24B 35.62%
2012-03-31 $0.41B $1.27B 37.87%
2011-12-31 $0.40B $1.17B 41.28%
2011-09-30 $0.39B $0.97B 45.91%
2011-06-30 $0.36B $0.87B 48.54%
2011-03-31 $0.33B $0.84B 52.08%
2010-12-31 $0.29B $0.74B 50.13%
2010-09-30 $0.30B $0.50B 44.44%
2010-06-30 $0.28B $0.44B 36.19%
2010-03-31 $0.26B $0.65B 28.98%
2009-12-31 $0.25B $1.10B 26.12%
Sector Industry Market Cap Revenue
Computer and Technology Computer Software $55.970B $6.441B
Dassault Systemes is a worldwide recognized leader in CAD/CAM/CAE and PDM II markets. The company's mission to provide solutions to enable customersto build their digital enterprise, by defining, simulating, managing and optimizing concurrently product, manufacturing process, and resources. In this virtual space, customers create innovative, high quality, safe and affordable products. The company delivers scaleable process and design-centric solutions on both Unix and Windows NT environments.
Stock Name Country Market Cap PE Ratio
Microsoft (MSFT) United States $3188.757B 37.15
Oracle (ORCL) United States $342.546B 27.88
Salesforce (CRM) United States $274.680B 45.92
Adobe (ADBE) United States $215.869B 36.09
Intuit (INTU) United States $186.990B 62.71
Synopsys (SNPS) United States $87.158B 62.88
Cadence Design Systems (CDNS) United States $78.946B 75.15
Autodesk (ADSK) United States $47.465B 46.38
MicroStrategy (MSTR) United States $29.363B 0.00
ANSYS (ANSS) United States $28.529B 52.79
PTC (PTC) United States $21.866B 57.99
SS&C Technologies Holdings (SSNC) United States $15.663B 14.83
Manhattan Associates (MANH) United States $13.894B 73.75
Open Text (OTEX) Canada $8.440B 8.50
Descartes Systems Group (DSGX) Canada $8.404B 73.56
Trend Micro (TMICY) Japan $6.677B 48.36
Pegasystems (PEGA) United States $5.252B 46.44
CommVault Systems (CVLT) United States $4.805B 78.51
Blackbaud (BLKB) United States $4.126B 35.52
ACI Worldwide (ACIW) United States $3.904B 18.56
Progress Software (PRGS) United States $2.218B 14.10
Verint Systems (VRNT) United States $1.979B 18.45
Sapiens (SPNS) Israel $1.902B 25.94
BlackBerry (BB) Canada $1.747B 0.00
PROS Holdings (PRO) United States $1.480B 0.00
Simulations Plus (SLP) United States $0.987B 72.66
Rand Worldwide (RWWI) United States $0.647B 0.00
Magic Software Enterprises (MGIC) Israel $0.532B 11.28
American Software (AMSWA) United States $0.352B 29.44
Canaan (CAN) China $0.251B 0.00
OptimizeRx (OPRX) United States $0.236B 0.00
Rigetti Computing (RGTI) United States $0.175B 0.00
Icad Inc (ICAD) United States $0.043B 0.00
Neonode (NEON) Sweden $0.037B 0.00
NetSol Technologies (NTWK) United States $0.031B 0.00
Smith Micro Software (SMSI) United States $0.026B 0.00
Wetouch Technology (WETH) $0.023B 0.00
Hanryu Holdings (HRYU) South Korea $0.022B 0.00
GSE Systems (GVP) United States $0.011B 0.00
SAP SE (SAP) Germany $0.000B 49.80